createdAt,value
2023-04-28T00:01:21.158Z,101067.16
2023-04-28T00:03:53.638Z,101065.21
2023-04-28T00:06:26.408Z,101064.08
2023-04-28T00:08:58.925Z,101066.80
2023-04-28T00:11:31.128Z,101063.91
2023-04-28T00:14:03.457Z,101069.02
2023-04-28T00:16:36.277Z,101072.70
2023-04-28T00:19:09.664Z,101073.92
2023-04-28T00:21:41.974Z,101073.37
2023-04-28T00:24:14.536Z,101074.63
2023-04-28T00:26:46.963Z,101077.98
2023-04-28T00:29:19.338Z,101078.63
2023-04-28T00:31:51.670Z,101079.39
2023-04-28T00:34:24.068Z,101080.81
2023-04-28T00:36:56.475Z,101085.80
2023-04-28T00:39:28.880Z,101084.92
2023-04-28T00:42:02.298Z,101081.75
2023-04-28T00:44:34.589Z,101086.79
2023-04-28T00:47:07.263Z,101085.54
2023-04-28T00:49:39.841Z,101083.50
2023-04-28T00:52:12.702Z,101084.80
2023-04-28T00:54:45.132Z,101084.39
2023-04-28T00:57:17.449Z,101082.48
2023-04-28T00:59:49.752Z,101083.57
2023-04-28T01:02:22.352Z,101084.05
2023-04-28T01:04:57.484Z,101090.27
2023-04-28T01:07:29.854Z,101088.83
2023-04-28T01:10:02.340Z,101093.96
2023-04-28T01:12:34.718Z,101093.86
2023-04-28T01:15:09.115Z,101094.98
2023-04-28T01:17:41.548Z,101097.73
2023-04-28T01:20:15.268Z,101099.30
2023-04-28T01:22:47.606Z,101098.05
2023-04-28T01:25:20.388Z,101096.69
2023-04-28T01:27:52.905Z,101100.19
2023-04-28T01:30:25.173Z,101096.64
2023-04-28T01:32:57.422Z,101094.34
2023-04-28T01:35:29.883Z,101097.31
2023-04-28T01:38:02.162Z,101100.06
2023-04-28T01:40:34.918Z,101103.15
2023-04-28T01:43:07.302Z,101102.88
2023-04-28T01:45:39.617Z,101101.41
2023-04-28T01:48:12.114Z,101105.77
2023-04-28T01:50:44.513Z,101106.08
2023-04-28T01:53:20.703Z,101109.63
2023-04-28T01:55:53.048Z,101112.30
2023-04-28T01:58:26.990Z,101113.79
2023-04-28T02:00:59.908Z,101116.57
2023-04-28T02:03:32.384Z,101118.07
2023-04-28T02:06:05.230Z,101122.58
2023-04-28T02:08:37.467Z,101124.80
2023-04-28T02:11:09.730Z,101124.91
2023-04-28T02:13:42.440Z,101124.95
2023-04-28T02:16:14.849Z,101132.73
2023-04-28T02:18:47.306Z,101133.02
2023-04-28T02:21:19.797Z,101131.02
2023-04-28T02:23:52.302Z,101131.02
2023-04-28T02:26:24.638Z,101137.09
2023-04-28T02:28:57.015Z,101136.75
2023-04-28T02:31:29.302Z,101134.14
2023-04-28T02:34:01.923Z,101136.27
2023-04-28T02:36:34.420Z,101139.83
2023-04-28T02:39:06.976Z,101145.23
2023-04-28T02:41:39.244Z,101149.65
2023-04-28T02:44:11.564Z,101149.23
2023-04-28T02:46:44.044Z,101154.83
2023-04-28T02:49:16.551Z,101157.44
2023-04-28T02:51:48.845Z,101159.23
2023-04-28T02:54:27.749Z,101163.17
2023-04-28T02:57:01.538Z,101166.02
2023-04-28T02:59:33.968Z,101168.15
2023-04-28T03:02:06.303Z,101170.20
2023-04-28T03:04:38.783Z,101171.80
2023-04-28T03:07:11.178Z,101174.17
2023-04-28T03:09:43.523Z,101175.41
2023-04-28T03:12:15.849Z,101180.86
2023-04-28T03:14:48.240Z,101183.98
2023-04-28T03:17:20.935Z,101184.20
2023-04-28T03:19:53.252Z,101190.42
2023-04-28T03:22:25.692Z,101195.29
2023-04-28T03:24:57.960Z,101199.66
2023-04-28T03:27:30.641Z,101201.98
2023-04-28T03:30:02.812Z,101204.92
2023-04-28T03:32:35.139Z,101218.39
2023-04-28T03:35:08.087Z,101219.05
2023-04-28T03:37:40.889Z,101216.93
2023-04-28T03:40:14.517Z,101225.73
2023-04-28T03:42:47.064Z,101227.66
2023-04-28T03:45:19.636Z,101228.08
2023-04-28T03:47:51.915Z,101234.50
2023-04-28T03:50:26.535Z,101240.86
2023-04-28T03:52:59.314Z,101245.04
2023-04-28T03:55:31.835Z,101244.96
2023-04-28T03:58:04.468Z,101249.54
2023-04-28T04:00:36.852Z,101251.52
2023-04-28T04:03:09.446Z,101253.89
2023-04-28T04:05:42.729Z,101254.20
2023-04-28T04:08:15.136Z,101259.93
2023-04-28T04:10:47.596Z,101264.09
2023-04-28T04:13:20.019Z,101261.61
2023-04-28T04:15:53.381Z,101264.16
2023-04-28T04:18:25.853Z,101261.89
2023-04-28T04:20:58.157Z,101263.39
2023-04-28T04:23:30.518Z,101267.18
2023-04-28T04:26:02.836Z,101269.34
2023-04-28T04:28:35.170Z,101270.80
2023-04-28T04:31:08.691Z,101276.75
2023-04-28T04:33:41.360Z,101275.27
2023-04-28T04:36:13.743Z,101279.97
2023-04-28T04:38:46.170Z,101281.64
2023-04-28T04:41:20.851Z,101284.45
2023-04-28T04:43:53.138Z,101284.63
2023-04-28T04:46:25.807Z,101288.67
2023-04-28T04:48:58.281Z,101291.21
2023-04-28T04:51:30.667Z,101292.06
2023-04-28T04:54:02.961Z,101297.99
2023-04-28T04:56:35.371Z,101296.20
2023-04-28T04:59:08.566Z,101294.14
2023-04-28T05:01:40.936Z,101296.80
2023-04-28T05:04:13.627Z,101297.70
2023-04-28T05:06:46.248Z,101300.42
2023-04-28T05:09:18.690Z,101303.36
2023-04-28T05:11:51.000Z,101305.37
2023-04-28T05:14:23.348Z,101307.52
2023-04-28T05:16:55.927Z,101305.64
2023-04-28T05:19:28.368Z,101305.68
2023-04-28T05:22:01.839Z,101306.78
2023-04-28T05:24:34.366Z,101303.42
2023-04-28T05:27:06.790Z,101306.88
2023-04-28T05:29:39.250Z,101310.48
2023-04-28T05:32:11.582Z,101313.25
2023-04-28T05:34:43.947Z,101313.31
2023-04-28T05:37:16.174Z,101312.96
2023-04-28T05:39:48.543Z,101316.30
2023-04-28T05:42:20.894Z,101316.73
2023-04-28T05:44:53.124Z,101317.75
2023-04-28T05:47:25.919Z,101317.38
2023-04-28T05:49:58.319Z,101317.40
2023-04-28T05:52:30.823Z,101320.43
2023-04-28T05:55:03.616Z,101321.40
2023-04-28T05:57:49.334Z,101324.98
2023-04-28T06:00:24.883Z,101322.70
2023-04-28T06:02:57.521Z,101328.37
2023-04-28T06:05:30.738Z,101325.10
2023-04-28T06:08:03.618Z,101326.39
2023-04-28T06:10:36.086Z,101326.95
2023-04-28T06:13:09.266Z,101325.56
2023-04-28T06:15:41.562Z,101322.08
2023-04-28T06:18:16.258Z,101321.34
2023-04-28T06:20:48.652Z,101325.08
2023-04-28T06:23:20.845Z,101326.77
2023-04-28T06:25:53.233Z,101323.27
2023-04-28T06:28:25.635Z,101323.64
2023-04-28T06:31:00.034Z,101322.88
2023-04-28T06:33:32.474Z,101326.88
2023-04-28T06:36:05.280Z,101327.48
2023-04-28T06:38:37.697Z,101324.08
2023-04-28T06:41:17.113Z,101329.25
2023-04-28T06:43:51.006Z,101335.36
2023-04-28T06:46:23.482Z,101331.63
2023-04-28T06:48:56.114Z,101330.87
2023-04-28T06:51:28.908Z,101329.88
2023-04-28T06:54:01.383Z,101332.60
2023-04-28T06:56:33.792Z,101333.79
2023-04-28T06:59:06.280Z,101331.48
2023-04-28T07:01:38.704Z,101328.97
2023-04-28T07:04:11.285Z,101327.83
2023-04-28T07:06:44.011Z,101324.42
2023-04-28T07:09:18.112Z,101323.79
2023-04-28T07:11:50.392Z,101321.48
2023-04-28T07:14:28.256Z,101318.30
2023-04-28T07:17:01.166Z,101320.39
2023-04-28T07:19:33.563Z,101324.20
2023-04-28T07:22:05.951Z,101314.64
2023-04-28T07:24:38.286Z,101322.56
2023-04-28T07:27:10.566Z,101322.13
2023-04-28T07:29:43.002Z,101322.86
2023-04-28T07:32:15.422Z,101321.91
2023-04-28T07:34:48.226Z,101325.15
2023-04-28T07:37:21.048Z,101322.95
2023-04-28T07:39:53.565Z,101318.15
2023-04-28T07:42:26.148Z,101322.30
2023-04-28T07:44:59.046Z,101322.20
2023-04-28T07:47:31.692Z,101323.34
2023-04-28T07:50:05.446Z,101323.73
2023-04-28T07:52:38.228Z,101318.52
2023-04-28T07:55:11.923Z,101319.63
2023-04-28T07:57:44.808Z,101314.98
2023-04-28T08:00:19.500Z,101304.18
2023-04-28T08:02:59.499Z,101305.97
2023-04-28T08:05:32.606Z,101303.65
2023-04-28T08:08:05.448Z,101301.45
2023-04-28T08:10:38.313Z,101303.89
2023-04-28T08:13:13.334Z,101297.40
2023-04-28T08:16:03.322Z,101296.54
2023-04-28T08:18:53.626Z,101292.12
2023-04-28T08:21:26.064Z,101289.52
2023-04-28T08:23:58.317Z,101283.27
2023-04-28T08:26:33.709Z,101284.79
2023-04-28T08:29:06.164Z,101279.60
2023-04-28T08:31:38.703Z,101280.63
2023-04-28T08:34:11.057Z,101278.19
2023-04-28T08:36:43.419Z,101274.67
2023-04-28T08:39:16.171Z,101270.02
2023-04-28T08:41:48.639Z,101264.23
2023-04-28T08:44:23.760Z,101253.20
2023-04-28T08:47:01.373Z,101256.75
2023-04-28T08:49:38.379Z,101261.20
2023-04-28T08:52:13.972Z,101258.46
2023-04-28T08:54:49.729Z,101266.31
2023-04-28T08:57:23.695Z,101265.66
2023-04-28T08:59:57.022Z,101263.98
2023-04-28T09:02:29.612Z,101262.08
2023-04-28T09:05:02.525Z,101262.13
2023-04-28T09:07:35.407Z,101255.27
2023-04-28T09:10:22.501Z,101259.59
2023-04-28T09:12:58.125Z,101262.08
2023-04-28T09:15:34.134Z,101261.01
2023-04-28T09:18:08.204Z,101253.67
2023-04-28T09:20:43.496Z,101261.33
2023-04-28T09:23:21.237Z,101261.81
2023-04-28T09:26:13.075Z,101246.47
2023-04-28T09:28:45.505Z,101249.67
2023-04-28T09:31:28.813Z,101249.77
2023-04-28T09:34:01.825Z,101240.90
2023-04-28T09:36:34.229Z,101238.45
2023-04-28T09:39:06.692Z,101236.27
2023-04-28T09:41:42.738Z,101230.23
2023-04-28T09:44:21.513Z,101227.06
2023-04-28T09:46:53.895Z,101219.27
2023-04-28T09:49:26.230Z,101217.25
2023-04-28T09:52:15.203Z,101219.27
2023-04-28T09:54:47.866Z,101215.69
2023-04-28T09:57:21.434Z,101205.89
2023-04-28T09:59:54.666Z,101192.70
2023-04-28T10:05:03.624Z,101201.38
2023-04-28T10:07:36.907Z,101199.76
2023-04-28T10:10:10.996Z,101197.29
2023-04-28T10:12:44.951Z,101198.42
2023-04-28T10:15:17.467Z,101195.54
2023-04-28T10:17:52.112Z,101194.40
2023-04-28T10:20:26.269Z,101196.64
2023-04-28T10:23:18.209Z,101200.95
2023-04-28T10:25:54.396Z,101198.81
2023-04-28T10:28:27.874Z,101196.71
2023-04-28T10:31:17.723Z,101198.55
2023-04-28T10:33:50.868Z,101189.94
2023-04-28T10:36:51.095Z,101184.16
2023-04-28T10:39:23.566Z,101184.11
2023-04-28T10:41:56.136Z,101180.85
2023-04-28T10:44:46.947Z,101182.63
2023-04-28T10:47:19.264Z,101177.36
2023-04-28T10:50:12.489Z,101170.98
2023-04-28T10:52:54.199Z,101170.95
2023-04-28T10:55:36.647Z,101161.23
2023-04-28T10:58:37.736Z,101164.87
2023-04-28T11:01:32.195Z,101160.18
2023-04-28T11:04:13.254Z,101153.92
2023-04-28T11:06:47.108Z,101151.02
2023-04-28T11:09:52.861Z,101145.53
2023-04-28T11:12:25.203Z,101149.59
2023-04-28T11:14:57.638Z,101150.93
2023-04-28T11:17:43.289Z,101144.27
2023-04-28T11:20:16.711Z,101134.43
2023-04-28T11:22:53.793Z,101133.73
2023-04-28T11:25:26.138Z,101127.46
2023-04-28T11:28:08.834Z,101123.39
2023-04-28T11:30:41.242Z,101117.14
2023-04-28T11:33:14.173Z,101119.96
2023-04-28T11:35:46.897Z,101110.67
2023-04-28T11:38:19.218Z,101117.64
2023-04-28T11:41:01.254Z,101116.48
2023-04-28T11:43:46.510Z,101126.17
2023-04-28T11:46:25.078Z,101114.71
2023-04-28T11:49:07.695Z,101110.37
2023-04-28T11:51:41.779Z,101108.90
2023-04-28T11:54:15.192Z,101106.71
2023-04-28T11:56:47.595Z,101101.48
2023-04-28T12:02:01.179Z,101098.08
2023-04-28T12:04:36.617Z,101091.88
2023-04-28T12:07:11.882Z,101090.71
2023-04-28T12:09:45.927Z,101083.20
2023-04-28T12:12:40.159Z,101088.70
2023-04-28T12:15:19.979Z,101084.45
2023-04-28T12:17:52.884Z,101078.46
2023-04-28T12:20:41.377Z,101078.44
2023-04-28T12:23:13.733Z,101068.37
2023-04-28T12:25:49.857Z,101066.77
2023-04-28T12:28:22.025Z,101061.70
2023-04-28T12:31:08.544Z,101058.14
2023-04-28T12:33:41.336Z,101047.98
2023-04-28T12:36:13.825Z,101050.67
2023-04-28T12:38:52.439Z,101047.51
2023-04-28T12:41:25.546Z,101044.48
2023-04-28T12:43:58.335Z,101040.63
2023-04-28T12:46:32.167Z,101039.29
2023-04-28T12:49:04.554Z,101043.63
2023-04-28T12:51:38.972Z,101036.47
2023-04-28T12:54:11.620Z,101027.42
2023-04-28T12:56:43.947Z,101027.25
2023-04-28T12:59:16.551Z,101022.09
2023-04-28T13:01:49.175Z,101014.23
2023-04-28T13:04:21.879Z,101019.44
2023-04-28T13:06:55.591Z,101016.30
2023-04-28T13:09:28.429Z,101011.86
2023-04-28T13:12:04.144Z,101013.84
2023-04-28T13:14:36.347Z,101006.96
2023-04-28T13:17:09.187Z,101007.98
2023-04-28T13:19:41.469Z,101009.17
2023-04-28T13:22:13.899Z,101008.45
2023-04-28T13:24:46.857Z,101004.21
2023-04-28T13:27:20.219Z,101002.94
2023-04-28T13:29:52.947Z,101008.87
2023-04-28T13:32:25.318Z,101006.07
2023-04-28T13:34:57.763Z,101006.77
2023-04-28T13:37:30.062Z,101001.59
2023-04-28T13:40:04.334Z,100994.40
2023-04-28T13:42:37.027Z,100993.75
2023-04-28T13:45:11.185Z,100992.88
2023-04-28T13:47:43.513Z,100994.89
2023-04-28T13:50:16.052Z,100993.77
2023-04-28T13:52:48.659Z,100987.84
2023-04-28T13:55:27.627Z,100983.68
2023-04-28T13:58:04.795Z,100981.58
2023-04-28T14:00:37.776Z,100980.05
2023-04-28T14:03:10.378Z,100979.98
2023-04-28T14:05:49.428Z,100981.20
2023-04-28T14:08:23.328Z,100974.98
2023-04-28T14:10:56.084Z,100975.05
2023-04-28T14:13:29.859Z,100975.98
2023-04-28T14:16:02.344Z,100980.09
2023-04-28T14:18:34.616Z,100976.48
2023-04-28T14:21:08.611Z,100975.31
2023-04-28T14:23:41.130Z,100972.97
2023-04-28T14:26:13.373Z,100969.98
2023-04-28T14:28:45.797Z,100969.02
2023-04-28T14:31:18.259Z,100971.08
2023-04-28T14:33:50.659Z,100964.80
2023-04-28T14:36:23.098Z,100968.45
2023-04-28T14:38:55.368Z,100961.70
2023-04-28T14:41:27.706Z,100959.08
2023-04-28T14:43:59.984Z,100956.55
2023-04-28T14:46:32.392Z,100953.94
2023-04-28T14:49:06.130Z,100949.23
2023-04-28T14:51:38.449Z,100948.52
2023-04-28T14:54:11.785Z,100953.15
2023-04-28T14:56:44.222Z,100959.77
2023-04-28T14:59:16.486Z,100960.80
2023-04-28T15:01:50.812Z,100959.73
2023-04-28T15:04:28.871Z,100958.27
2023-04-28T15:07:02.125Z,100959.85
2023-04-28T15:09:34.485Z,100957.17
2023-04-28T15:12:10.034Z,100958.33
2023-04-28T15:14:42.513Z,100957.05
2023-04-28T15:17:15.294Z,100953.77
2023-04-28T15:19:47.750Z,100958.42
2023-04-28T15:22:24.632Z,100954.44
2023-04-28T15:24:57.027Z,100956.61
2023-04-28T15:27:29.657Z,100957.83
2023-04-28T15:30:02.748Z,100953.91
2023-04-28T15:32:35.386Z,100957.02
2023-04-28T15:35:10.712Z,100959.48
2023-04-28T15:37:47.745Z,100957.63
2023-04-28T15:40:21.506Z,100953.73
2023-04-28T15:42:53.913Z,100950.10
2023-04-28T15:45:26.582Z,100950.33
2023-04-28T15:47:58.996Z,100944.53
2023-04-28T15:50:32.014Z,100944.77
2023-04-28T15:53:04.358Z,100943.20
2023-04-28T15:55:39.838Z,100937.98
2023-04-28T15:58:12.293Z,100937.10
2023-04-28T16:00:46.048Z,100937.40
2023-04-28T16:03:19.253Z,100935.20
2023-04-28T16:05:54.299Z,100933.42
2023-04-28T16:08:26.580Z,100928.73
2023-04-28T16:10:58.929Z,100928.39
2023-04-28T16:13:33.143Z,100924.29
2023-04-28T16:16:09.795Z,100923.62
2023-04-28T16:18:44.445Z,100923.70
2023-04-28T16:21:18.036Z,100925.91
2023-04-28T16:23:51.491Z,100923.28
2023-04-28T16:26:24.217Z,100924.77
2023-04-28T16:28:56.614Z,100927.90
2023-04-28T16:31:29.059Z,100930.93
2023-04-28T16:34:01.470Z,100931.92
2023-04-28T16:36:34.727Z,100934.40
2023-04-28T16:39:07.219Z,100933.75
2023-04-28T16:41:39.524Z,100931.88
2023-04-28T16:44:12.295Z,100937.59
2023-04-28T16:46:44.639Z,100939.11
2023-04-28T16:49:16.985Z,100937.49
2023-04-28T16:52:00.983Z,100941.33
2023-04-28T16:54:34.392Z,100940.42
2023-04-28T16:57:07.859Z,100937.24
2023-04-28T16:59:40.300Z,100939.84
2023-04-28T17:02:12.750Z,100942.16
2023-04-28T17:04:45.143Z,100942.59
2023-04-28T17:07:17.445Z,100947.36
2023-04-28T17:09:50.016Z,100946.06
2023-04-28T17:12:23.447Z,100952.04
2023-04-28T17:14:55.842Z,100952.67
2023-04-28T17:17:29.304Z,100953.14
2023-04-28T17:20:02.481Z,100959.23
2023-04-28T17:22:36.071Z,100960.52
2023-04-28T17:25:10.120Z,100962.81
2023-04-28T17:27:42.461Z,100960.95
2023-04-28T17:30:15.406Z,100963.71
2023-04-28T17:32:47.804Z,100968.11
2023-04-28T17:35:20.370Z,100968.73
2023-04-28T17:37:52.808Z,100976.05
2023-04-28T17:40:25.533Z,100973.46
2023-04-28T17:42:58.755Z,100977.64
2023-04-28T17:45:31.091Z,100979.71
2023-04-28T17:48:04.234Z,100986.14
2023-04-28T17:50:36.773Z,100987.69
2023-04-28T17:53:09.004Z,100988.67
2023-04-28T17:55:41.444Z,100993.23
2023-04-28T17:58:13.838Z,100993.65
2023-04-28T18:00:46.572Z,100993.64
2023-04-28T18:03:18.884Z,100997.64
2023-04-28T18:05:51.504Z,101000.21
2023-04-28T18:08:23.794Z,100998.60
2023-04-28T18:10:56.478Z,101001.47
2023-04-28T18:13:28.915Z,101000.70
2023-04-28T18:16:01.361Z,101003.36
2023-04-28T18:18:35.608Z,101004.46
2023-04-28T18:21:08.372Z,101001.87
2023-04-28T18:23:40.713Z,101004.52
2023-04-28T18:26:13.063Z,101008.15
2023-04-28T18:28:49.196Z,101007.41
2023-04-28T18:31:21.619Z,101004.61
2023-04-28T18:33:55.397Z,101003.19
2023-04-28T18:36:27.995Z,101009.77
2023-04-28T18:39:01.916Z,101011.23
2023-04-28T18:41:35.093Z,101010.97
2023-04-28T18:44:07.443Z,101010.45
2023-04-28T18:46:40.007Z,101016.50
2023-04-28T18:49:12.881Z,101011.26
2023-04-28T18:51:45.277Z,101010.70
2023-04-28T18:54:18.021Z,101010.23
2023-04-28T18:56:52.674Z,101014.31
2023-04-28T18:59:26.492Z,101012.65
2023-04-28T19:01:58.857Z,101015.58
2023-04-28T19:04:32.338Z,101017.30
2023-04-28T19:07:04.704Z,101019.58
2023-04-28T19:09:37.024Z,101021.08
2023-04-28T19:12:09.543Z,101031.20
2023-04-28T19:14:42.397Z,101044.05
2023-04-28T19:17:15.497Z,101057.17
2023-04-28T19:19:48.019Z,101054.98
2023-04-28T19:22:35.438Z,101059.34
2023-04-28T19:25:09.180Z,101064.63
2023-04-28T19:27:43.134Z,101064.10
2023-04-28T19:30:16.896Z,101064.70
2023-04-28T19:32:49.293Z,101074.19
2023-04-28T19:35:22.382Z,101074.30
2023-04-28T19:37:55.994Z,101080.46
2023-04-28T19:40:29.144Z,101075.44
2023-04-28T19:43:01.597Z,101074.85
2023-04-28T19:45:35.215Z,101073.19
2023-04-28T19:48:08.210Z,101072.39
2023-04-28T19:50:40.584Z,101071.16
2023-04-28T19:53:13.064Z,101073.89
2023-04-28T19:55:45.398Z,101073.84
2023-04-28T19:58:18.446Z,101072.61
2023-04-28T20:00:51.088Z,101070.42
2023-04-28T20:03:23.612Z,101070.57
2023-04-28T20:05:56.446Z,101072.45
2023-04-28T20:08:29.646Z,101072.02
2023-04-28T20:11:01.891Z,101070.36
2023-04-28T20:13:34.982Z,101070.54
2023-04-28T20:16:07.393Z,101066.66
2023-04-28T20:18:39.824Z,101067.54
2023-04-28T20:21:12.129Z,101071.02
2023-04-28T20:23:44.386Z,101068.99
2023-04-28T20:26:17.781Z,101066.48
2023-04-28T20:28:50.656Z,101062.33
2023-04-28T20:31:23.784Z,101058.80
2023-04-28T20:33:56.241Z,101060.02
2023-04-28T20:36:29.919Z,101058.51
2023-04-28T20:39:02.287Z,101059.43
2023-04-28T20:41:34.570Z,101058.73
2023-04-28T20:44:06.805Z,101059.40
2023-04-28T20:46:39.182Z,101054.08
2023-04-28T20:49:12.508Z,101054.50
2023-04-28T20:51:46.218Z,101062.92
2023-04-28T20:54:18.527Z,101057.04
2023-04-28T20:56:50.880Z,101062.08
2023-04-28T20:59:23.139Z,101061.38
2023-04-28T21:01:55.861Z,101059.67
2023-04-28T21:04:28.579Z,101061.95
2023-04-28T21:07:00.970Z,101059.98
2023-04-28T21:09:33.359Z,101063.84
2023-04-28T21:12:06.069Z,101062.36
2023-04-28T21:14:38.509Z,101064.93
2023-04-28T21:17:10.872Z,101068.86
2023-04-28T21:19:43.218Z,101069.17
2023-04-28T21:22:15.529Z,101066.92
2023-04-28T21:24:47.974Z,101069.45
2023-04-28T21:27:20.318Z,101071.45
2023-04-28T21:29:52.982Z,101072.45
2023-04-28T21:32:25.689Z,101070.52
2023-04-28T21:34:58.147Z,101071.11
2023-04-28T21:37:31.839Z,101068.47
2023-04-28T21:40:04.533Z,101067.00
2023-04-28T21:42:36.840Z,101067.88
2023-04-28T21:45:11.050Z,101067.84
2023-04-28T21:47:43.674Z,101065.84
2023-04-28T21:50:16.360Z,101065.71
2023-04-28T21:52:48.664Z,101066.11
2023-04-28T21:55:21.012Z,101070.14
2023-04-28T21:57:54.239Z,101073.45
2023-04-28T22:00:26.937Z,101073.46
2023-04-28T22:03:00.495Z,101072.55
2023-04-28T22:05:32.938Z,101072.33
2023-04-28T22:08:05.758Z,101070.27
2023-04-28T22:10:38.128Z,101069.56
2023-04-28T22:13:10.507Z,101075.46
2023-04-28T22:15:43.125Z,101075.77
2023-04-28T22:18:15.365Z,101073.70
2023-04-28T22:20:50.177Z,101076.16
2023-04-28T22:23:22.433Z,101076.42
2023-04-28T22:25:54.767Z,101075.36
2023-04-28T22:28:27.699Z,101073.14
2023-04-28T22:31:00.134Z,101076.76
2023-04-28T22:33:33.006Z,101071.31
2023-04-28T22:36:05.569Z,101067.47
2023-04-28T22:38:37.861Z,101065.61
2023-04-28T22:41:10.232Z,101065.09
2023-04-28T22:43:42.997Z,101060.98
2023-04-28T22:46:15.259Z,101061.38
2023-04-28T22:48:47.540Z,101058.43
2023-04-28T22:51:19.908Z,101056.15
2023-04-28T22:53:54.371Z,101051.31
2023-04-28T22:56:26.859Z,101051.13
2023-04-28T22:58:59.302Z,101052.10
2023-04-28T23:01:32.127Z,101048.54
2023-04-28T23:04:04.749Z,101051.14
2023-04-28T23:06:37.130Z,101046.71
2023-04-28T23:09:09.337Z,101045.60
2023-04-28T23:11:41.621Z,101041.00
2023-04-28T23:14:13.921Z,101043.22
2023-04-28T23:16:46.337Z,101038.98
2023-04-28T23:19:20.624Z,101036.20
2023-04-28T23:21:54.509Z,101040.33
2023-04-28T23:24:27.926Z,101044.25
2023-04-28T23:27:00.694Z,101046.14
2023-04-28T23:29:33.254Z,101044.40
2023-04-28T23:32:06.060Z,101042.82
2023-04-28T23:34:41.804Z,101042.97
2023-04-28T23:37:12.606Z,101037.65
2023-04-28T23:39:44.845Z,101039.82
2023-04-28T23:42:17.610Z,101038.95
2023-04-28T23:44:50.133Z,101039.52
2023-04-28T23:47:22.670Z,101039.67
2023-04-28T23:49:55.014Z,101040.02
2023-04-28T23:52:27.297Z,101038.98
2023-04-28T23:54:59.652Z,101034.11
2023-04-28T23:57:31.943Z,101030.35
